Time;durP1;ratioP1;P1;durP2;ratioP2;P2;SDS_P1;SDS_P2;PMS_P1;PMS_P2;Temp;Humidity;BMP_temperature;BMP_pressure;BME280_temperature;BME280_humidity;BME280_pressure;Samples;Min_cycle;Max_cycle;Signal;HPM_P1;HPM_P2
2023/08/11 00:01:06;;;;;;;1.98;1.30;;;;;;;;;;5002878;28;20041;-76
2023/08/11 00:03:32;;;;;;;1.48;1.30;;;;;;;;;;5000098;28;20105;-75
2023/08/11 00:05:58;;;;;;;2.15;1.52;;;;;;;;;;4989240;28;20137;-75
2023/08/11 00:08:23;;;;;;;3.25;1.70;;;;;;;;;;4998035;28;20034;-74
2023/08/11 00:10:49;;;;;;;3.40;1.40;;;;;;;;;;4970406;28;20434;-75
2023/08/11 00:13:15;;;;;;;2.80;1.40;;;;;;;;;;4980037;28;20034;-75
2023/08/11 00:15:40;;;;;;;2.40;1.65;;;;;;;;;;4997236;28;20546;-75
2023/08/11 00:18:08;;;;;;;2.45;1.40;;;;;;;;;;5000376;28;20045;-74
2023/08/11 00:20:34;;;;;;;1.65;1.17;;;;;;;;;;4984470;28;20602;-75
2023/08/11 00:22:59;;;;;;;1.83;1.50;;;;;;;;;;5000241;28;20770;-76
2023/08/11 00:25:25;;;;;;;1.92;1.50;;;;;;;;;;5004643;28;20053;-76
2023/08/11 00:27:50;;;;;;;1.50;1.40;;;;;;;;;;4997647;28;20041;-76
2023/08/11 00:30:16;;;;;;;1.48;1.10;;;;;;;;;;5001699;28;20494;-75
2023/08/11 00:32:42;;;;;;;1.23;0.90;;;;;;;;;;4996069;28;20038;-75
2023/08/11 00:35:07;;;;;;;2.17;1.40;;;;;;;;;;4994998;28;20121;-74
2023/08/11 00:37:33;;;;;;;1.98;1.17;;;;;;;;;;5009172;28;20034;-75
2023/08/11 00:39:59;;;;;;;1.63;1.27;;;;;;;;;;4998835;28;20037;-76
2023/08/11 00:42:25;;;;;;;3.65;1.52;;;;;;;;;;4990886;28;20083;-77
2023/08/11 00:44:51;;;;;;;1.83;1.30;;;;;;;;;;4999109;28;20041;-76
2023/08/11 00:47:17;;;;;;;2.25;1.20;;;;;;;;;;4992880;28;20034;-76
2023/08/11 00:49:43;;;;;;;2.85;0.93;;;;;;;;;;4987292;28;20076;-76
2023/08/11 00:52:09;;;;;;;4.72;1.38;;;;;;;;;;4999284;28;20077;-76
2023/08/11 00:54:36;;;;;;;2.90;1.60;;;;;;;;;;4984987;28;20041;-75
2023/08/11 00:57:02;;;;;;;2.05;1.23;;;;;;;;;;5002524;28;20105;-76
2023/08/11 00:59:27;;;;;;;3.13;1.48;;;;;;;;;;5001387;28;20514;-74
2023/08/11 01:01:53;;;;;;;2.75;1.50;;;;;;;;;;4987663;28;20036;-76
2023/08/11 01:04:20;;;;;;;1.80;1.25;;;;;;;;;;4984238;28;20045;-75
2023/08/11 01:06:58;;;;;;;2.45;1.23;;;;;;;;;;4987157;28;20069;-75
2023/08/11 01:09:35;;;;;;;2.30;1.40;;;;;;;;;;4992655;28;20048;-75
2023/08/11 01:12:13;;;;;;;2.03;1.23;;;;;;;;;;5001468;28;20394;-74
2023/08/11 01:14:48;;;;;;;1.63;1.20;;;;;;;;;;4984539;28;20038;-75
2023/08/11 01:17:15;;;;;;;3.05;1.40;;;;;;;;;;4997490;28;20052;-76
2023/08/11 01:19:41;;;;;;;3.42;1.48;;;;;;;;;;4999036;28;20045;-76
2023/08/11 01:22:19;;;;;;;6.43;1.58;;;;;;;;;;4998140;28;20056;-76
2023/08/11 01:24:45;;;;;;;1.67;1.10;;;;;;;;;;4994177;28;20064;-76
2023/08/11 01:27:12;;;;;;;3.38;1.30;;;;;;;;;;4985316;28;20538;-76
2023/08/11 01:29:39;;;;;;;2.50;1.30;;;;;;;;;;4999585;28;20034;-76
2023/08/11 01:32:05;;;;;;;2.80;1.40;;;;;;;;;;4992672;28;20092;-77
2023/08/11 01:34:30;;;;;;;2.85;1.40;;;;;;;;;;4999369;28;20038;-77
2023/08/11 01:36:59;;;;;;;1.67;1.20;;;;;;;;;;4994901;28;20605;-76
2023/08/11 01:39:24;;;;;;;3.83;1.23;;;;;;;;;;4985990;28;20066;-76
2023/08/11 01:41:50;;;;;;;2.55;0.98;;;;;;;;;;5000524;28;20062;-76
2023/08/11 01:44:15;;;;;;;2.97;1.75;;;;;;;;;;4997615;28;20138;-76
2023/08/11 01:46:42;;;;;;;1.90;1.10;;;;;;;;;;4997047;28;20250;-74
2023/08/11 01:49:10;;;;;;;1.55;1.10;;;;;;;;;;4993923;28;20046;-75
2023/08/11 01:51:36;;;;;;;2.08;1.30;;;;;;;;;;4982081;28;20421;-75
2023/08/11 01:54:02;;;;;;;3.38;1.13;;;;;;;;;;4983412;28;20037;-76
2023/08/11 01:56:28;;;;;;;2.35;1.25;;;;;;;;;;4997148;28;20125;-76
2023/08/11 01:58:56;;;;;;;2.85;1.45;;;;;;;;;;4996973;28;20117;-75
2023/08/11 02:01:21;;;;;;;1.70;1.17;;;;;;;;;;4995948;28;20046;-75
2023/08/11 02:03:47;;;;;;;3.97;1.30;;;;;;;;;;5001540;28;20041;-75
2023/08/11 02:06:14;;;;;;;3.28;1.20;;;;;;;;;;5001120;28;20184;-75
2023/08/11 02:08:40;;;;;;;1.13;1.02;;;;;;;;;;4992756;28;20086;-75
2023/08/11 02:11:05;;;;;;;1.70;1.00;;;;;;;;;;4995880;28;20053;-75
2023/08/11 02:13:31;;;;;;;1.95;1.30;;;;;;;;;;5004848;28;20026;-75
2023/08/11 02:15:56;;;;;;;1.98;0.82;;;;;;;;;;5002517;28;20046;-75
2023/08/11 02:18:21;;;;;;;1.40;0.95;;;;;;;;;;5001872;28;20056;-76
2023/08/11 02:20:47;;;;;;;2.70;1.30;;;;;;;;;;4988377;28;20398;-75
2023/08/11 02:23:12;;;;;;;1.08;0.90;;;;;;;;;;4997835;28;20088;-76
2023/08/11 02:25:38;;;;;;;1.23;1.08;;;;;;;;;;4998094;28;20092;-75
2023/08/11 02:28:04;;;;;;;2.80;0.90;;;;;;;;;;5003651;28;20045;-75
2023/08/11 02:30:29;;;;;;;1.83;1.08;;;;;;;;;;5001631;28;20608;-75
2023/08/11 02:32:55;;;;;;;1.85;1.15;;;;;;;;;;4999562;28;20034;-75
2023/08/11 02:35:21;;;;;;;1.40;1.10;;;;;;;;;;4991241;28;20049;-75
2023/08/11 02:37:47;;;;;;;1.70;1.48;;;;;;;;;;4997168;28;20525;-75
2023/08/11 02:40:14;;;;;;;2.28;1.25;;;;;;;;;;5000623;28;20083;-75
2023/08/11 02:42:45;;;;;;;1.92;1.10;;;;;;;;;;5002833;28;20509;-75
2023/08/11 02:45:11;;;;;;;1.30;1.10;;;;;;;;;;5000157;28;20579;-74
2023/08/11 02:47:38;;;;;;;1.27;1.17;;;;;;;;;;5004291;28;20064;-75
2023/08/11 02:50:04;;;;;;;2.10;1.08;;;;;;;;;;5001882;28;20053;-74
2023/08/11 02:52:30;;;;;;;1.40;1.10;;;;;;;;;;4989388;28;20034;-75
2023/08/11 02:54:55;;;;;;;1.38;1.00;;;;;;;;;;5001327;28;20038;-75
2023/08/11 02:57:21;;;;;;;2.65;0.90;;;;;;;;;;4988377;28;20030;-75
2023/08/11 02:59:49;;;;;;;1.08;0.88;;;;;;;;;;5003120;28;20457;-74
2023/08/11 03:02:15;;;;;;;4.38;1.30;;;;;;;;;;4992428;28;20049;-75
2023/08/11 03:04:40;;;;;;;3.78;1.40;;;;;;;;;;5001751;28;20140;-74
2023/08/11 03:07:05;;;;;;;2.58;1.52;;;;;;;;;;4998675;28;20121;-75
2023/08/11 03:09:31;;;;;;;3.35;2.15;;;;;;;;;;5004776;28;20530;-74
2023/08/11 03:11:57;;;;;;;6.93;1.67;;;;;;;;;;5002651;28;20042;-75
2023/08/11 03:14:22;;;;;;;2.55;1.60;;;;;;;;;;5001703;28;20422;-74
2023/08/11 03:16:48;;;;;;;4.25;1.30;;;;;;;;;;4985043;28;20096;-75
2023/08/11 03:19:13;;;;;;;1.60;1.25;;;;;;;;;;4999434;28;20088;-75
2023/08/11 03:21:39;;;;;;;2.13;1.33;;;;;;;;;;5008344;28;20058;-75
2023/08/11 03:24:04;;;;;;;2.47;1.40;;;;;;;;;;4989627;28;20041;-74
2023/08/11 03:26:30;;;;;;;3.60;1.40;;;;;;;;;;4998327;28;20033;-74
2023/08/11 03:28:55;;;;;;;3.38;1.48;;;;;;;;;;4999561;28;20485;-75
2023/08/11 03:31:20;;;;;;;3.17;1.10;;;;;;;;;;4993911;28;20040;-75
2023/08/11 03:33:46;;;;;;;1.15;0.90;;;;;;;;;;5004920;28;20041;-75
2023/08/11 03:36:12;;;;;;;6.95;1.10;;;;;;;;;;5006715;28;20453;-75
2023/08/11 03:38:38;;;;;;;2.60;1.10;;;;;;;;;;5003301;28;20088;-75
2023/08/11 03:41:03;;;;;;;3.70;1.30;;;;;;;;;;5006114;28;20042;-75
2023/08/11 03:43:28;;;;;;;4.55;1.38;;;;;;;;;;5000311;28;20030;-75
2023/08/11 03:45:54;;;;;;;2.85;1.30;;;;;;;;;;4989022;28;20410;-75
2023/08/11 03:48:19;;;;;;;2.40;1.50;;;;;;;;;;4993937;28;20037;-75
2023/08/11 03:50:45;;;;;;;2.90;1.17;;;;;;;;;;4999233;28;20037;-74
2023/08/11 03:53:12;;;;;;;1.30;1.20;;;;;;;;;;5000416;28;20383;-75
2023/08/11 03:55:38;;;;;;;1.90;1.73;;;;;;;;;;4986139;28;20461;-75
2023/08/11 03:58:04;;;;;;;3.13;1.60;;;;;;;;;;4982639;28;20045;-74
2023/08/11 04:00:29;;;;;;;2.03;1.33;;;;;;;;;;4986223;28;20087;-75
2023/08/11 04:02:54;;;;;;;1.13;1.02;;;;;;;;;;5000535;28;20655;-75
2023/08/11 04:05:20;;;;;;;0.93;0.80;;;;;;;;;;5004493;28;20034;-75
2023/08/11 04:07:45;;;;;;;2.83;1.58;;;;;;;;;;5002570;28;20034;-75
2023/08/11 04:10:11;;;;;;;1.10;1.00;;;;;;;;;;4992248;28;20124;-75
2023/08/11 04:12:36;;;;;;;2.33;1.40;;;;;;;;;;4994977;28;20151;-75
2023/08/11 04:15:02;;;;;;;1.75;1.42;;;;;;;;;;4991246;28;20100;-75
2023/08/11 04:17:28;;;;;;;1.90;1.10;;;;;;;;;;4997029;28;20954;-75
2023/08/11 04:19:54;;;;;;;1.50;1.20;;;;;;;;;;4997651;28;20029;-75
2023/08/11 04:22:20;;;;;;;2.95;1.25;;;;;;;;;;4996338;28;20053;-74
2023/08/11 04:24:46;;;;;;;2.10;1.60;;;;;;;;;;4983341;28;20117;-74
2023/08/11 04:27:11;;;;;;;1.75;1.30;;;;;;;;;;4994990;28;20117;-74
2023/08/11 04:29:37;;;;;;;1.27;1.00;;;;;;;;;;4994973;28;20034;-75
2023/08/11 04:32:04;;;;;;;1.10;1.00;;;;;;;;;;4998182;28;20639;-74
2023/08/11 04:34:31;;;;;;;1.63;1.25;;;;;;;;;;4999995;28;20529;-75
2023/08/11 04:36:56;;;;;;;1.55;1.40;;;;;;;;;;4988546;28;20489;-75
2023/08/11 04:39:22;;;;;;;2.50;1.38;;;;;;;;;;4999616;28;20040;-74
2023/08/11 04:41:47;;;;;;;4.40;1.63;;;;;;;;;;4989995;28;20055;-76
2023/08/11 04:44:14;;;;;;;3.05;1.58;;;;;;;;;;4996190;28;20052;-76
2023/08/11 04:46:39;;;;;;;2.10;1.40;;;;;;;;;;4998344;28;20041;-75
2023/08/11 04:49:05;;;;;;;2.20;1.83;;;;;;;;;;4999494;28;20613;-75
2023/08/11 04:51:31;;;;;;;1.85;1.50;;;;;;;;;;4996129;28;20037;-75
2023/08/11 04:54:00;;;;;;;3.65;1.80;;;;;;;;;;5004545;28;20143;-75
2023/08/11 04:56:27;;;;;;;4.35;1.65;;;;;;;;;;4971907;28;20141;-74
2023/08/11 04:58:54;;;;;;;8.68;2.30;;;;;;;;;;5002055;28;20080;-74
2023/08/11 05:01:21;;;;;;;2.38;2.10;;;;;;;;;;4980016;28;20054;-74
2023/08/11 05:03:46;;;;;;;3.83;2.00;;;;;;;;;;4999257;28;20593;-75
2023/08/11 05:06:12;;;;;;;4.97;2.10;;;;;;;;;;4977113;28;20129;-76
2023/08/11 05:08:37;;;;;;;3.55;1.60;;;;;;;;;;4965004;28;20069;-75
2023/08/11 05:11:04;;;;;;;2.95;1.83;;;;;;;;;;4989485;28;20131;-75
2023/08/11 05:13:29;;;;;;;3.70;1.85;;;;;;;;;;4992737;28;20044;-75
2023/08/11 05:15:55;;;;;;;4.93;2.05;;;;;;;;;;4981482;28;20038;-75
2023/08/11 05:18:20;;;;;;;4.20;1.98;;;;;;;;;;4994448;28;20716;-75
2023/08/11 05:20:46;;;;;;;3.38;1.63;;;;;;;;;;4995216;28;20037;-75
2023/08/11 05:23:12;;;;;;;4.38;1.73;;;;;;;;;;4982790;28;20041;-75
2023/08/11 05:25:38;;;;;;;2.75;1.92;;;;;;;;;;4995349;28;20052;-75
2023/08/11 05:28:04;;;;;;;3.58;1.95;;;;;;;;;;4994890;28;20087;-75
2023/08/11 05:30:29;;;;;;;4.13;1.90;;;;;;;;;;4992678;28;20100;-77
2023/08/11 05:32:56;;;;;;;6.53;2.20;;;;;;;;;;4991696;28;20121;-74
2023/08/11 05:35:21;;;;;;;4.57;2.15;;;;;;;;;;4992790;28;20088;-74
2023/08/11 05:37:47;;;;;;;3.08;2.03;;;;;;;;;;4984535;28;20041;-75
2023/08/11 05:40:12;;;;;;;5.07;2.08;;;;;;;;;;4990889;28;20049;-75
2023/08/11 05:42:38;;;;;;;3.75;2.20;;;;;;;;;;4990160;28;20548;-75
2023/08/11 05:45:04;;;;;;;3.05;1.90;;;;;;;;;;4991399;28;20045;-75
2023/08/11 05:47:31;;;;;;;4.28;2.13;;;;;;;;;;4974573;28;20790;-76
2023/08/11 05:49:57;;;;;;;3.42;2.40;;;;;;;;;;4990493;28;20045;-77
2023/08/11 05:52:22;;;;;;;5.28;2.30;;;;;;;;;;4979608;28;20061;-76
2023/08/11 05:54:48;;;;;;;3.50;2.30;;;;;;;;;;4992124;28;20410;-76
2023/08/11 05:57:13;;;;;;;2.83;2.00;;;;;;;;;;4995209;28;20038;-76
2023/08/11 05:59:38;;;;;;;6.13;2.20;;;;;;;;;;4989836;28;20449;-77
2023/08/11 06:02:04;;;;;;;3.67;2.40;;;;;;;;;;4990150;28;20054;-77
2023/08/11 06:04:29;;;;;;;7.30;2.03;;;;;;;;;;4990821;28;20038;-77
2023/08/11 06:06:55;;;;;;;4.45;2.40;;;;;;;;;;4994440;28;20858;-77
2023/08/11 06:09:22;;;;;;;3.63;2.10;;;;;;;;;;5002540;28;20041;-78
2023/08/11 06:11:47;;;;;;;6.30;2.20;;;;;;;;;;4996576;28;20073;-77
2023/08/11 06:14:12;;;;;;;3.67;1.85;;;;;;;;;;4990882;28;20078;-76
2023/08/11 06:16:38;;;;;;;3.58;1.83;;;;;;;;;;4997277;28;20045;-78
2023/08/11 06:19:03;;;;;;;2.50;1.75;;;;;;;;;;4986399;28;20073;-76
2023/08/11 06:21:29;;;;;;;4.35;1.80;;;;;;;;;;4991009;28;20042;-77
2023/08/11 06:23:54;;;;;;;4.07;1.80;;;;;;;;;;4976104;28;20125;-77
2023/08/11 06:26:19;;;;;;;3.10;1.90;;;;;;;;;;4977120;28;20037;-78
2023/08/11 06:28:45;;;;;;;3.33;1.98;;;;;;;;;;4997147;28;20049;-77
2023/08/11 06:31:10;;;;;;;2.83;2.08;;;;;;;;;;4982053;28;20157;-76
2023/08/11 06:33:36;;;;;;;4.75;2.10;;;;;;;;;;4987178;28;20046;-76
2023/08/11 06:36:01;;;;;;;4.57;2.10;;;;;;;;;;4995785;28;20390;-77
2023/08/11 06:38:27;;;;;;;3.55;2.10;;;;;;;;;;4997346;28;20037;-76
2023/08/11 06:40:52;;;;;;;3.47;2.35;;;;;;;;;;4997647;28;20113;-77
2023/08/11 06:43:17;;;;;;;2.95;2.33;;;;;;;;;;5003348;28;20049;-77
2023/08/11 06:45:45;;;;;;;3.13;1.67;;;;;;;;;;4999293;28;20045;-76
2023/08/11 06:48:11;;;;;;;4.07;2.00;;;;;;;;;;4989510;28;20398;-77
2023/08/11 06:50:37;;;;;;;3.22;1.80;;;;;;;;;;5000230;28;20057;-76
2023/08/11 06:53:03;;;;;;;6.20;2.25;;;;;;;;;;5003050;28;20030;-76
2023/08/11 06:55:28;;;;;;;5.18;1.90;;;;;;;;;;5002530;28;20599;-76
2023/08/11 06:57:53;;;;;;;3.42;2.38;;;;;;;;;;5001131;28;20042;-77
2023/08/11 07:00:19;;;;;;;5.40;1.85;;;;;;;;;;4997299;28;20480;-76
2023/08/11 07:02:44;;;;;;;2.15;1.67;;;;;;;;;;4984907;28;20128;-76
2023/08/11 07:05:10;;;;;;;3.95;2.00;;;;;;;;;;4994325;28;20061;-77
2023/08/11 07:07:36;;;;;;;7.00;1.92;;;;;;;;;;4980229;28;20153;-76
2023/08/11 07:10:03;;;;;;;2.85;1.70;;;;;;;;;;4995704;28;20177;-77
2023/08/11 07:12:28;;;;;;;5.10;2.00;;;;;;;;;;4997878;28;20046;-77
2023/08/11 07:14:54;;;;;;;4.13;2.00;;;;;;;;;;4983118;28;20045;-76
2023/08/11 07:17:19;;;;;;;4.85;1.95;;;;;;;;;;4986386;28;20050;-76
2023/08/11 07:19:44;;;;;;;5.32;2.08;;;;;;;;;;5006081;23;20050;-76
2023/08/11 07:22:10;;;;;;;3.47;1.85;;;;;;;;;;4983526;28;20114;-76
2023/08/11 07:24:35;;;;;;;3.75;2.00;;;;;;;;;;4959779;28;20135;-76
2023/08/11 07:27:01;;;;;;;6.60;2.00;;;;;;;;;;4954105;28;20053;-76
2023/08/11 07:29:27;;;;;;;4.95;2.17;;;;;;;;;;4960050;28;20087;-78
2023/08/11 07:31:52;;;;;;;3.22;2.08;;;;;;;;;;4923398;28;20165;-76
2023/08/11 07:34:19;;;;;;;5.75;2.50;;;;;;;;;;4985152;28;20061;-76
2023/08/11 07:36:44;;;;;;;8.23;2.15;;;;;;;;;;4984523;28;20041;-76
2023/08/11 07:39:12;;;;;;;7.28;2.40;;;;;;;;;;4969193;28;20048;-76
2023/08/11 07:41:37;;;;;;;6.68;1.38;;;;;;;;;;4984208;28;20033;-76
2023/08/11 07:44:04;;;;;;;5.00;1.88;;;;;;;;;;4970400;28;20418;-75
2023/08/11 07:46:29;;;;;;;5.07;1.63;;;;;;;;;;4982545;28;20046;-76
2023/08/11 07:48:55;;;;;;;5.57;2.22;;;;;;;;;;4973822;28;20073;-76
2023/08/11 07:51:20;;;;;;;4.13;1.77;;;;;;;;;;4977146;28;20076;-76
2023/08/11 07:53:46;;;;;;;3.38;1.75;;;;;;;;;;4964344;28;20066;-76
2023/08/11 07:56:12;;;;;;;3.00;1.60;;;;;;;;;;4981409;28;20026;-76
2023/08/11 07:58:38;;;;;;;5.40;2.00;;;;;;;;;;4975456;28;20050;-75
2023/08/11 08:01:04;;;;;;;4.80;1.85;;;;;;;;;;4976262;28;20038;-76
2023/08/11 08:03:30;;;;;;;2.97;1.50;;;;;;;;;;4973914;28;20041;-76
2023/08/11 08:05:55;;;;;;;2.63;1.40;;;;;;;;;;4982412;28;20046;-76
2023/08/11 08:08:21;;;;;;;5.78;1.60;;;;;;;;;;4981952;28;20026;-76
2023/08/11 08:10:46;;;;;;;7.05;1.67;;;;;;;;;;4979895;28;20076;-76
2023/08/11 08:13:12;;;;;;;2.83;1.23;;;;;;;;;;4970571;28;20030;-77
2023/08/11 08:15:37;;;;;;;6.85;1.17;;;;;;;;;;4973991;28;20264;-75
2023/08/11 08:18:03;;;;;;;5.15;1.50;;;;;;;;;;4979061;28;20088;-76
2023/08/11 08:20:28;;;;;;;1.70;1.05;;;;;;;;;;4983485;28;20057;-76
2023/08/11 08:22:53;;;;;;;2.97;1.10;;;;;;;;;;4973532;28;20034;-76
2023/08/11 08:25:19;;;;;;;1.92;1.20;;;;;;;;;;4972919;28;20042;-77
2023/08/11 08:27:45;;;;;;;4.38;1.02;;;;;;;;;;4961776;28;20046;-75
2023/08/11 08:30:11;;;;;;;2.28;1.15;;;;;;;;;;4951674;28;20434;-76
2023/08/11 08:32:38;;;;;;;3.38;1.17;;;;;;;;;;4952017;28;20042;-76
2023/08/11 08:35:04;;;;;;;2.72;1.10;;;;;;;;;;4973290;28;20086;-76
2023/08/11 08:37:31;;;;;;;2.25;1.10;;;;;;;;;;4977464;28;20038;-75
2023/08/11 08:39:57;;;;;;;3.72;1.40;;;;;;;;;;4949278;28;20038;-76
2023/08/11 08:42:25;;;;;;;3.28;1.15;;;;;;;;;;4933938;28;20041;-76
2023/08/11 08:44:52;;;;;;;3.92;1.35;;;;;;;;;;4965203;28;20118;-76
2023/08/11 08:47:20;;;;;;;1.88;0.93;;;;;;;;;;4974101;28;20554;-76
2023/08/11 08:49:48;;;;;;;1.55;0.90;;;;;;;;;;4975272;28;20034;-76
2023/08/11 08:52:15;;;;;;;1.42;1.05;;;;;;;;;;4985374;28;20132;-76
2023/08/11 08:54:41;;;;;;;1.88;1.20;;;;;;;;;;4957575;28;20034;-76
2023/08/11 08:57:09;;;;;;;0.80;0.70;;;;;;;;;;4960696;28;20050;-76
2023/08/11 08:59:36;;;;;;;1.10;0.90;;;;;;;;;;4959970;28;20131;-77
2023/08/11 09:02:01;;;;;;;1.85;1.10;;;;;;;;;;4945171;28;20532;-77
2023/08/11 09:04:27;;;;;;;1.13;1.00;;;;;;;;;;4972466;28;20660;-77
2023/08/11 09:06:55;;;;;;;1.67;1.00;;;;;;;;;;4929834;28;20109;-77
2023/08/11 09:09:23;;;;;;;1.98;0.98;;;;;;;;;;4973723;28;20041;-76
2023/08/11 09:11:49;;;;;;;1.85;1.10;;;;;;;;;;4972470;28;20113;-76
2023/08/11 09:14:16;;;;;;;4.13;1.10;;;;;;;;;;4977596;28;20132;-76
2023/08/11 09:16:41;;;;;;;2.25;1.02;;;;;;;;;;4978081;28;20052;-77
2023/08/11 09:19:11;;;;;;;1.10;0.65;;;;;;;;;;4944140;28;20555;-77
2023/08/11 09:21:37;;;;;;;0.88;0.80;;;;;;;;;;4947021;28;21013;-76
2023/08/11 09:24:03;;;;;;;2.17;1.10;;;;;;;;;;4968201;28;20129;-76
2023/08/11 09:26:29;;;;;;;2.05;0.98;;;;;;;;;;4964690;28;20108;-76
2023/08/11 09:28:55;;;;;;;1.30;0.73;;;;;;;;;;4964968;28;20041;-77
2023/08/11 09:31:24;;;;;;;2.28;1.20;;;;;;;;;;4968651;28;20042;-77
2023/08/11 09:33:51;;;;;;;1.50;1.20;;;;;;;;;;4966257;28;20030;-77
2023/08/11 09:36:18;;;;;;;3.10;1.10;;;;;;;;;;4968599;28;20042;-77
2023/08/11 09:38:45;;;;;;;2.25;1.10;;;;;;;;;;4981777;28;20026;-77
2023/08/11 09:41:11;;;;;;;1.23;1.10;;;;;;;;;;4959522;28;20042;-77
2023/08/11 09:43:37;;;;;;;1.10;1.00;;;;;;;;;;4976696;28;20065;-76
2023/08/11 09:46:02;;;;;;;1.48;0.82;;;;;;;;;;4985631;28;20038;-76
2023/08/11 09:48:28;;;;;;;1.58;1.10;;;;;;;;;;4956240;28;20073;-77
2023/08/11 09:50:56;;;;;;;2.70;1.15;;;;;;;;;;4982229;28;20056;-78
2023/08/11 09:53:23;;;;;;;2.75;1.52;;;;;;;;;;4963399;28;20038;-76
2023/08/11 09:55:53;;;;;;;1.58;1.00;;;;;;;;;;4982155;28;20434;-76
2023/08/11 09:58:24;;;;;;;2.55;1.17;;;;;;;;;;4972720;28;20100;-77
2023/08/11 10:00:51;;;;;;;4.20;1.40;;;;;;;;;;4963911;28;20446;-76
2023/08/11 10:03:22;;;;;;;1.80;1.33;;;;;;;;;;4977836;28;20026;-77
2023/08/11 10:05:51;;;;;;;1.05;0.82;;;;;;;;;;4972706;28;20418;-76
2023/08/11 10:08:21;;;;;;;1.85;1.20;;;;;;;;;;4970052;28;20050;-77
2023/08/11 10:10:47;;;;;;;2.40;1.02;;;;;;;;;;4964516;28;20113;-76
2023/08/11 10:13:15;;;;;;;1.42;0.90;;;;;;;;;;4966074;28;20042;-77
2023/08/11 10:15:42;;;;;;;2.55;1.20;;;;;;;;;;4977867;28;20474;-77
2023/08/11 10:18:08;;;;;;;2.20;1.30;;;;;;;;;;4981718;28;20101;-77
2023/08/11 10:20:34;;;;;;;1.80;0.90;;;;;;;;;;4977661;28;20048;-76
2023/08/11 10:23:01;;;;;;;1.90;1.40;;;;;;;;;;4976352;28;20149;-77
2023/08/11 10:25:27;;;;;;;1.38;1.00;;;;;;;;;;4953604;28;20116;-76
2023/08/11 10:27:54;;;;;;;2.10;1.02;;;;;;;;;;4949773;28;20034;-76
2023/08/11 10:30:19;;;;;;;2.10;1.10;;;;;;;;;;4957010;28;20042;-77
2023/08/11 10:32:45;;;;;;;2.15;1.50;;;;;;;;;;4955584;28;20072;-76
2023/08/11 10:35:25;;;;;;;2.38;1.55;;;;;;;;;;4940485;28;20051;-77
2023/08/11 10:37:57;;;;;;;1.38;1.00;;;;;;;;;;4951957;28;20088;-77
2023/08/11 10:40:23;;;;;;;1.85;1.40;;;;;;;;;;4941750;28;20045;-77
2023/08/11 10:42:50;;;;;;;1.67;1.30;;;;;;;;;;4961245;28;20039;-76
2023/08/11 10:45:21;;;;;;;1.27;0.90;;;;;;;;;;4942619;28;20054;-77
2023/08/11 10:47:54;;;;;;;2.50;1.40;;;;;;;;;;4941221;28;20139;-77
2023/08/11 10:50:23;;;;;;;2.17;1.40;;;;;;;;;;4944327;28;20038;-77
2023/08/11 10:53:21;;;;;;;3.17;1.35;;;;;;;;;;4946403;28;20042;-77
2023/08/11 10:56:13;;;;;;;1.67;1.17;;;;;;;;;;4944386;28;20752;-77
2023/08/11 10:58:39;;;;;;;2.00;1.10;;;;;;;;;;4945528;28;20042;-77
2023/08/11 11:01:04;;;;;;;1.80;1.00;;;;;;;;;;4931104;28;20100;-77
2023/08/11 11:03:30;;;;;;;1.00;0.90;;;;;;;;;;4953666;28;20050;-77
2023/08/11 11:05:57;;;;;;;4.70;1.58;;;;;;;;;;4956308;28;20061;-77
2023/08/11 11:08:23;;;;;;;1.77;1.23;;;;;;;;;;4954949;28;20068;-77
2023/08/11 11:10:48;;;;;;;2.00;1.27;;;;;;;;;;4953169;28;20050;-78
2023/08/11 11:13:14;;;;;;;2.63;1.58;;;;;;;;;;4941145;28;20038;-77
2023/08/11 11:15:40;;;;;;;3.47;1.58;;;;;;;;;;4947913;28;20039;-77
2023/08/11 11:18:06;;;;;;;4.78;1.50;;;;;;;;;;4958240;28;20643;-77
2023/08/11 11:20:33;;;;;;;1.65;1.35;;;;;;;;;;4959751;28;20044;-77
2023/08/11 11:22:58;;;;;;;2.90;1.55;;;;;;;;;;4952709;28;20065;-77
2023/08/11 11:25:24;;;;;;;2.92;1.63;;;;;;;;;;4953753;28;20042;-77
2023/08/11 11:27:49;;;;;;;3.63;1.50;;;;;;;;;;4955489;28;20042;-77
2023/08/11 11:30:15;;;;;;;2.80;1.77;;;;;;;;;;4908154;28;20042;-77
2023/08/11 11:32:42;;;;;;;1.15;1.08;;;;;;;;;;4951684;28;20058;-77
2023/08/11 11:35:08;;;;;;;3.60;1.60;;;;;;;;;;4971480;28;20042;-78
2023/08/11 11:37:33;;;;;;;2.92;1.50;;;;;;;;;;4964417;28;20042;-76
2023/08/11 11:40:03;;;;;;;2.85;1.52;;;;;;;;;;4968523;28;20049;-77
2023/08/11 11:42:29;;;;;;;1.08;0.95;;;;;;;;;;4933344;28;87962;-77
2023/08/11 11:44:56;;;;;;;3.13;1.55;;;;;;;;;;4960241;28;20042;-77
2023/08/11 11:47:22;;;;;;;1.65;1.50;;;;;;;;;;4963416;28;20077;-77
2023/08/11 11:49:58;;;;;;;1.50;1.05;;;;;;;;;;4955274;28;191768;-76
2023/08/11 11:52:24;;;;;;;1.55;1.10;;;;;;;;;;4963800;28;20078;-77
2023/08/11 11:54:55;;;;;;;3.33;1.70;;;;;;;;;;4955228;28;108442;-77
2023/08/11 11:57:21;;;;;;;2.45;1.52;;;;;;;;;;4941435;28;20412;-77
2023/08/11 11:59:50;;;;;;;3.25;1.48;;;;;;;;;;4967313;28;20133;-77
2023/08/11 12:02:16;;;;;;;3.63;1.70;;;;;;;;;;4966653;28;20046;-77
2023/08/11 12:04:43;;;;;;;3.45;1.65;;;;;;;;;;4958983;28;20038;-77
2023/08/11 12:07:09;;;;;;;3.10;1.40;;;;;;;;;;4963806;28;20542;-77
2023/08/11 12:09:51;;;;;;;2.67;1.63;;;;;;;;;;4943477;28;20027;-77
2023/08/11 12:12:16;;;;;;;3.60;1.60;;;;;;;;;;4958348;28;20042;-77
2023/08/11 12:14:42;;;;;;;2.08;1.30;;;;;;;;;;4942298;28;20048;-77
2023/08/11 12:17:08;;;;;;;2.13;1.35;;;;;;;;;;4932055;28;20067;-77
2023/08/11 12:19:33;;;;;;;1.90;1.50;;;;;;;;;;4942239;28;20468;-77
2023/08/11 12:22:00;;;;;;;1.83;1.40;;;;;;;;;;4926762;28;20130;-76
2023/08/11 12:24:25;;;;;;;1.52;1.25;;;;;;;;;;4923030;28;20108;-77
2023/08/11 12:26:51;;;;;;;1.40;1.23;;;;;;;;;;4936611;28;20047;-77
2023/08/11 12:29:16;;;;;;;3.17;1.50;;;;;;;;;;4936921;28;20054;-77
2023/08/11 12:31:41;;;;;;;3.13;1.50;;;;;;;;;;4936358;28;20043;-77
2023/08/11 12:34:07;;;;;;;1.83;1.27;;;;;;;;;;4936361;28;20043;-77
2023/08/11 12:36:32;;;;;;;2.00;1.90;;;;;;;;;;4917794;28;20037;-77
2023/08/11 12:38:57;;;;;;;1.52;0.98;;;;;;;;;;4936453;28;21063;-77
2023/08/11 12:41:23;;;;;;;4.07;2.10;;;;;;;;;;4919867;28;20036;-77
2023/08/11 12:43:48;;;;;;;27.33;24.50;;;;;;;;;;4922973;28;20027;-77
2023/08/11 12:46:14;;;;;;;67.07;42.85;;;;;;;;;;4926470;28;20074;-77
2023/08/11 12:48:39;;;;;;;28.48;25.17;;;;;;;;;;4935868;28;20597;-77
2023/08/11 12:51:05;;;;;;;5.35;3.17;;;;;;;;;;4925692;28;20408;-77
2023/08/11 12:53:30;;;;;;;2.85;2.40;;;;;;;;;;4924137;28;20036;-77
2023/08/11 12:55:56;;;;;;;2.45;1.58;;;;;;;;;;4925362;28;20042;-77
2023/08/11 12:58:21;;;;;;;1.85;1.33;;;;;;;;;;4935539;28;20039;-77
2023/08/11 13:00:47;;;;;;;4.00;2.63;;;;;;;;;;4935746;28;20757;-77
2023/08/11 13:03:12;;;;;;;1.50;1.30;;;;;;;;;;4936198;28;20039;-77
2023/08/11 13:05:38;;;;;;;11.30;7.07;;;;;;;;;;4913508;28;20512;-77
2023/08/11 13:08:03;;;;;;;7.57;5.28;;;;;;;;;;4925058;28;20046;-77
2023/08/11 13:10:29;;;;;;;5.43;4.68;;;;;;;;;;4935058;28;20471;-77
2023/08/11 13:12:54;;;;;;;1.90;1.50;;;;;;;;;;4935622;28;20051;-77
2023/08/11 13:15:19;;;;;;;1.50;1.40;;;;;;;;;;4935942;28;20071;-77
2023/08/11 13:17:45;;;;;;;1.92;1.42;;;;;;;;;;4936860;28;20039;-77
2023/08/11 13:20:12;;;;;;;2.97;1.73;;;;;;;;;;4946209;23;21125;-77
2023/08/11 13:22:38;;;;;;;1.50;1.40;;;;;;;;;;4974946;28;21343;-77
2023/08/11 13:25:04;;;;;;;2.03;1.50;;;;;;;;;;4966873;28;20023;-77
2023/08/11 13:27:30;;;;;;;1.42;1.05;;;;;;;;;;4966596;28;20019;-77
2023/08/11 13:29:56;;;;;;;1.45;1.17;;;;;;;;;;4967176;28;20685;-77
2023/08/11 13:32:21;;;;;;;2.17;1.52;;;;;;;;;;4958772;28;20030;-77
2023/08/11 13:34:46;;;;;;;2.10;1.27;;;;;;;;;;4954640;28;20034;-77
2023/08/11 13:37:12;;;;;;;1.40;1.30;;;;;;;;;;4948144;28;20062;-77
2023/08/11 13:39:38;;;;;;;2.47;1.60;;;;;;;;;;4953076;28;20031;-77
2023/08/11 13:42:03;;;;;;;1.63;1.50;;;;;;;;;;4952165;28;20023;-77
2023/08/11 13:44:28;;;;;;;1.60;1.50;;;;;;;;;;4956320;28;20031;-77
2023/08/11 13:46:54;;;;;;;1.98;1.25;;;;;;;;;;4951968;28;20018;-77
2023/08/11 13:49:19;;;;;;;1.25;1.15;;;;;;;;;;4946489;28;20665;-77
2023/08/11 13:51:45;;;;;;;2.42;1.40;;;;;;;;;;4962133;28;20023;-77
2023/08/11 13:54:10;;;;;;;1.88;1.45;;;;;;;;;;4963088;28;20030;-76
2023/08/11 13:56:36;;;;;;;1.38;1.27;;;;;;;;;;4961219;28;20039;-75
2023/08/11 13:59:02;;;;;;;1.50;1.40;;;;;;;;;;4956905;28;20110;-76
2023/08/11 14:01:27;;;;;;;1.50;1.40;;;;;;;;;;4956168;28;20057;-76
2023/08/11 14:03:53;;;;;;;2.67;1.52;;;;;;;;;;4956252;28;20054;-76
2023/08/11 14:06:19;;;;;;;1.42;1.30;;;;;;;;;;4951726;28;20039;-76
2023/08/11 14:08:45;;;;;;;1.30;1.20;;;;;;;;;;4959237;28;20518;-76
2023/08/11 14:11:13;;;;;;;5.47;1.55;;;;;;;;;;4971519;28;20491;-76
2023/08/11 14:13:40;;;;;;;1.50;1.40;;;;;;;;;;4956558;28;20027;-76
2023/08/11 14:16:05;;;;;;;1.33;1.10;;;;;;;;;;4955927;28;20047;-76
2023/08/11 14:18:31;;;;;;;1.02;0.85;;;;;;;;;;4955992;28;20024;-76
2023/08/11 14:20:56;;;;;;;2.28;1.50;;;;;;;;;;4953776;28;20035;-76
2023/08/11 14:23:22;;;;;;;1.30;1.20;;;;;;;;;;4950227;28;81714;-76
2023/08/11 14:25:47;;;;;;;1.52;1.20;;;;;;;;;;4971290;28;20058;-76
2023/08/11 14:28:13;;;;;;;1.95;1.10;;;;;;;;;;4957860;28;20553;-75
2023/08/11 14:30:38;;;;;;;1.73;1.58;;;;;;;;;;4964196;28;20646;-76
2023/08/11 14:33:04;;;;;;;5.05;1.73;;;;;;;;;;4945937;28;20053;-77
2023/08/11 14:35:29;;;;;;;2.08;1.42;;;;;;;;;;4958249;28;20473;-75
2023/08/11 14:37:55;;;;;;;1.27;1.17;;;;;;;;;;4955680;28;20454;-76